createdAt,value
2023-04-20T00:02:08.487Z,5.70
2023-04-20T00:04:36.590Z,5.38
2023-04-20T00:07:04.539Z,5.55
2023-04-20T00:09:31.948Z,5.23
2023-04-20T00:12:01.732Z,5.72
2023-04-20T00:14:29.040Z,5.60
2023-04-20T00:16:56.283Z,5.10
2023-04-20T00:19:23.958Z,5.22
2023-04-20T00:21:51.169Z,5.10
2023-04-20T00:24:18.384Z,5.32
2023-04-20T00:26:45.591Z,5.32
2023-04-20T00:29:14.919Z,5.25
2023-04-20T00:31:42.651Z,4.80
2023-04-20T00:34:09.848Z,5.10
2023-04-20T00:36:37.091Z,4.88
2023-04-20T00:39:05.656Z,5.13
2023-04-20T00:41:32.917Z,4.82
2023-04-20T00:44:00.792Z,5.15
2023-04-20T00:46:29.384Z,5.30
2023-04-20T00:48:58.416Z,4.90
2023-04-20T00:51:28.327Z,4.93
2023-04-20T00:53:56.313Z,5.00
2023-04-20T00:56:26.411Z,4.72
2023-04-20T00:58:53.648Z,5.07
2023-04-20T01:01:21.037Z,4.35
2023-04-20T01:03:49.777Z,4.88
2023-04-20T01:06:17.949Z,4.63
2023-04-20T01:08:47.631Z,4.68
2023-04-20T01:11:14.891Z,4.40
2023-04-20T01:13:42.751Z,4.60
2023-04-20T01:16:10.303Z,4.90
2023-04-20T01:18:43.920Z,4.88
2023-04-20T01:21:13.117Z,5.25
2023-04-20T01:23:41.696Z,5.23
2023-04-20T01:26:10.342Z,5.38
2023-04-20T01:28:37.760Z,5.55
2023-04-20T01:31:07.020Z,5.30
2023-04-20T01:33:34.606Z,5.13
2023-04-20T01:36:02.061Z,5.37
2023-04-20T01:38:32.787Z,5.80
2023-04-20T01:41:04.399Z,5.22
2023-04-20T01:43:32.717Z,5.70
2023-04-20T01:46:00.713Z,5.72
2023-04-20T01:48:27.986Z,5.63
2023-04-20T01:50:55.521Z,5.75
2023-04-20T01:53:23.198Z,5.70
2023-04-20T01:55:50.580Z,6.38
2023-04-20T01:58:19.106Z,6.30
2023-04-20T02:00:46.350Z,6.33
2023-04-20T02:03:13.741Z,6.20
2023-04-20T02:05:41.103Z,6.10
2023-04-20T02:08:08.324Z,6.72
2023-04-20T02:10:35.802Z,6.15
2023-04-20T02:13:03.229Z,5.93
2023-04-20T02:15:33.627Z,5.93
2023-04-20T02:18:01.050Z,6.72
2023-04-20T02:20:28.322Z,6.95
2023-04-20T02:22:55.591Z,6.82
2023-04-20T02:25:22.817Z,7.03
2023-04-20T02:27:50.195Z,6.47
2023-04-20T02:30:17.443Z,6.97
2023-04-20T02:32:45.994Z,7.18
2023-04-20T02:35:16.367Z,7.13
2023-04-20T02:37:43.609Z,7.47
2023-04-20T02:40:13.105Z,7.13
2023-04-20T02:42:41.315Z,7.30
2023-04-20T02:45:11.388Z,7.63
2023-04-20T02:47:39.718Z,7.70
2023-04-20T02:50:09.529Z,7.47
2023-04-20T02:52:51.792Z,7.38
2023-04-20T02:55:19.262Z,7.53
2023-04-20T02:57:49.938Z,8.10
2023-04-20T03:00:19.622Z,8.27
2023-04-20T03:02:59.567Z,7.63
2023-04-20T03:05:28.861Z,7.63
2023-04-20T03:07:56.682Z,8.13
2023-04-20T03:10:25.536Z,7.90
2023-04-20T03:13:05.397Z,8.10
2023-04-20T03:15:40.620Z,8.37
2023-04-20T03:18:16.420Z,8.23
2023-04-20T03:20:45.876Z,7.97
2023-04-20T03:23:13.124Z,8.50
2023-04-20T03:25:40.492Z,8.57
2023-04-20T03:28:19.141Z,8.23
2023-04-20T03:30:46.720Z,8.32
2023-04-20T03:33:16.478Z,8.40
2023-04-20T03:35:45.145Z,8.18
2023-04-20T03:38:12.459Z,7.90
2023-04-20T03:40:39.696Z,8.43
2023-04-20T03:43:06.873Z,8.07
2023-04-20T03:45:34.160Z,8.23
2023-04-20T03:48:01.520Z,8.50
2023-04-20T03:50:28.834Z,8.63
2023-04-20T03:52:57.332Z,8.73
2023-04-20T03:55:24.572Z,9.10
2023-04-20T03:57:58.337Z,9.25
2023-04-20T04:00:27.577Z,9.02
2023-04-20T04:03:04.123Z,9.30
2023-04-20T04:05:33.145Z,8.93
2023-04-20T04:08:02.826Z,9.43
2023-04-20T04:10:30.954Z,9.15
2023-04-20T04:12:58.177Z,9.85
2023-04-20T04:15:25.428Z,9.35
2023-04-20T04:18:02.405Z,9.87
2023-04-20T04:20:32.041Z,9.38
2023-04-20T04:23:01.759Z,9.23
2023-04-20T04:25:43.543Z,10.05
2023-04-20T04:28:14.548Z,9.82
2023-04-20T04:30:52.368Z,10.27
2023-04-20T04:33:20.216Z,9.23
2023-04-20T04:35:49.483Z,9.52
2023-04-20T04:38:18.449Z,9.90
2023-04-20T04:40:48.727Z,9.65
2023-04-20T04:43:16.819Z,10.40
2023-04-20T04:45:51.104Z,10.35
2023-04-20T04:48:19.852Z,11.10
2023-04-20T04:50:47.362Z,10.77
2023-04-20T04:53:14.624Z,9.93
2023-04-20T04:55:43.162Z,11.07
2023-04-20T04:58:10.397Z,10.57
2023-04-20T05:00:37.581Z,10.88
2023-04-20T05:03:04.922Z,10.88
2023-04-20T05:05:32.201Z,11.57
2023-04-20T05:07:59.432Z,10.93
2023-04-20T05:10:26.734Z,11.32
2023-04-20T05:12:55.407Z,11.38
2023-04-20T05:15:23.140Z,11.43
2023-04-20T05:17:50.918Z,10.82
2023-04-20T05:20:18.830Z,10.33
2023-04-20T05:22:46.245Z,11.93
2023-04-20T05:25:14.172Z,11.32
2023-04-20T05:27:41.729Z,10.98
2023-04-20T05:30:21.437Z,11.55
2023-04-20T05:32:52.240Z,11.30
2023-04-20T05:35:22.997Z,11.00
2023-04-20T05:37:50.347Z,10.50
2023-04-20T05:40:17.638Z,10.88
2023-04-20T05:42:45.162Z,10.63
2023-04-20T05:45:13.876Z,11.30
2023-04-20T05:47:41.165Z,10.50
2023-04-20T05:50:09.764Z,11.57
2023-04-20T05:52:37.295Z,10.93
2023-04-20T05:55:05.287Z,11.73
2023-04-20T05:57:32.500Z,10.30
2023-04-20T05:59:59.872Z,11.55
2023-04-20T06:02:28.656Z,11.32
2023-04-20T06:04:57.047Z,11.55
2023-04-20T06:07:24.411Z,11.13
2023-04-20T06:09:51.741Z,10.30
2023-04-20T06:12:18.915Z,11.85
2023-04-20T06:14:46.129Z,11.90
2023-04-20T06:17:13.314Z,11.73
2023-04-20T06:19:41.840Z,11.35
2023-04-20T06:22:09.318Z,11.10
2023-04-20T06:24:38.590Z,11.25
2023-04-20T06:27:05.879Z,11.30
2023-04-20T06:29:33.476Z,11.40
2023-04-20T06:32:01.061Z,11.75
2023-04-20T06:34:28.703Z,11.90
2023-04-20T06:36:57.815Z,11.73
2023-04-20T06:39:25.281Z,11.00
2023-04-20T06:41:56.776Z,10.77
2023-04-20T06:44:24.126Z,10.52
2023-04-20T06:46:51.400Z,10.37
2023-04-20T06:49:18.840Z,10.82
2023-04-20T06:51:46.288Z,11.00
2023-04-20T06:54:14.832Z,11.18
2023-04-20T06:56:42.003Z,10.60
2023-04-20T06:59:09.231Z,10.77
2023-04-20T07:01:36.584Z,11.45
2023-04-20T07:04:03.972Z,11.00
2023-04-20T07:06:32.050Z,11.20
2023-04-20T07:08:59.346Z,10.90
2023-04-20T07:11:27.969Z,11.30
2023-04-20T07:13:55.212Z,11.13
2023-04-20T07:16:22.600Z,11.18
2023-04-20T07:18:49.852Z,11.00
2023-04-20T07:21:17.147Z,10.95
2023-04-20T07:23:45.233Z,12.20
2023-04-20T07:26:12.786Z,10.90
2023-04-20T07:28:42.455Z,11.25
2023-04-20T07:31:09.734Z,12.45
2023-04-20T07:33:37.088Z,12.02
2023-04-20T07:36:06.169Z,12.03
2023-04-20T07:38:33.508Z,12.48
2023-04-20T07:41:01.211Z,11.32
2023-04-20T07:43:28.458Z,11.10
2023-04-20T07:45:57.067Z,11.60
2023-04-20T07:48:24.446Z,11.70
2023-04-20T07:50:51.685Z,12.02
2023-04-20T07:53:18.969Z,11.73
2023-04-20T07:55:46.237Z,11.45
2023-04-20T07:58:14.309Z,11.43
2023-04-20T08:00:41.601Z,11.70
2023-04-20T08:03:10.506Z,11.20
2023-04-20T08:05:39.195Z,11.82
2023-04-20T08:08:07.537Z,11.32
2023-04-20T08:10:35.170Z,12.27
2023-04-20T08:13:02.776Z,11.50
2023-04-20T08:15:31.575Z,11.80
2023-04-20T08:17:59.075Z,11.95
2023-04-20T08:20:27.761Z,11.90
2023-04-20T08:22:54.971Z,11.38
2023-04-20T08:25:23.355Z,12.17
2023-04-20T08:27:51.469Z,11.27
2023-04-20T08:30:18.683Z,11.98
2023-04-20T08:32:45.922Z,11.07
2023-04-20T08:35:13.476Z,11.80
2023-04-20T08:37:42.858Z,11.17
2023-04-20T08:40:11.060Z,11.18
2023-04-20T08:42:38.341Z,10.90
2023-04-20T08:45:06.456Z,11.10
2023-04-20T08:47:35.670Z,11.52
2023-04-20T08:50:04.472Z,10.87
2023-04-20T08:52:32.076Z,10.55
2023-04-20T08:55:00.691Z,10.98
2023-04-20T08:57:27.911Z,10.85
2023-04-20T08:59:56.127Z,11.07
2023-04-20T09:02:23.526Z,11.53
2023-04-20T09:05:01.202Z,10.02
2023-04-20T09:07:28.462Z,10.93
2023-04-20T09:09:56.798Z,11.15
2023-04-20T09:12:25.644Z,11.50
2023-04-20T09:14:53.327Z,11.27
2023-04-20T09:17:32.164Z,11.15
2023-04-20T09:19:59.430Z,11.45
2023-04-20T09:22:30.814Z,10.57
2023-04-20T09:24:58.084Z,10.90
2023-04-20T09:27:26.869Z,11.20
2023-04-20T09:29:58.373Z,10.73
2023-04-20T09:32:28.034Z,10.30
2023-04-20T09:34:56.089Z,10.77
2023-04-20T09:37:23.312Z,10.80
2023-04-20T09:39:50.640Z,10.33
2023-04-20T09:42:18.393Z,10.18
2023-04-20T09:44:46.967Z,9.95
2023-04-20T09:47:17.093Z,10.63
2023-04-20T09:49:44.781Z,9.82
2023-04-20T09:52:15.930Z,10.40
2023-04-20T09:54:44.150Z,10.82
2023-04-20T09:57:13.105Z,10.25
2023-04-20T09:59:43.212Z,10.18
2023-04-20T10:02:13.159Z,10.85
2023-04-20T10:04:52.552Z,10.50
2023-04-20T10:07:24.228Z,10.23
2023-04-20T10:10:03.222Z,10.52
2023-04-20T10:12:30.549Z,8.73
2023-04-20T10:14:57.956Z,10.05
2023-04-20T10:17:31.792Z,9.47
2023-04-20T10:19:59.375Z,9.82
2023-04-20T10:22:32.788Z,9.23
2023-04-20T10:25:00.537Z,9.50
2023-04-20T10:27:28.324Z,9.23
2023-04-20T10:29:55.508Z,9.50
2023-04-20T10:32:24.248Z,8.95
2023-04-20T10:35:03.042Z,8.60
2023-04-20T10:37:31.926Z,9.40
2023-04-20T10:39:59.620Z,9.55
2023-04-20T10:42:26.960Z,9.43
2023-04-20T10:44:54.644Z,9.88
2023-04-20T10:47:27.598Z,9.63
2023-04-20T10:49:54.897Z,9.40
2023-04-20T10:52:34.511Z,9.00
2023-04-20T10:55:01.703Z,9.30
2023-04-20T10:57:28.879Z,9.43
2023-04-20T10:59:57.084Z,8.93
2023-04-20T11:02:24.555Z,9.07
2023-04-20T11:04:53.232Z,8.82
2023-04-20T11:07:20.940Z,8.67
2023-04-20T11:09:56.369Z,8.60
2023-04-20T11:12:23.810Z,9.40
2023-04-20T11:14:52.825Z,9.52
2023-04-20T11:17:20.527Z,10.15
2023-04-20T11:19:47.886Z,9.87
2023-04-20T11:22:23.324Z,9.48
2023-04-20T11:24:50.530Z,10.15
2023-04-20T11:27:24.744Z,9.93
2023-04-20T11:29:57.487Z,9.68
2023-04-20T11:32:25.429Z,10.03
2023-04-20T11:35:05.953Z,10.23
2023-04-20T11:37:34.769Z,9.60
2023-04-20T11:40:04.789Z,10.20
2023-04-20T11:42:33.301Z,9.73
2023-04-20T11:45:00.626Z,10.27
2023-04-20T11:47:28.254Z,10.52
2023-04-20T11:49:55.775Z,9.50
2023-04-20T11:52:23.006Z,10.20
2023-04-20T11:54:50.229Z,9.32
2023-04-20T11:57:17.532Z,10.50
2023-04-20T11:59:49.100Z,10.38
2023-04-20T12:02:16.419Z,10.25
2023-04-20T12:04:43.802Z,10.20
2023-04-20T12:07:11.302Z,10.13
2023-04-20T12:09:38.630Z,10.07
2023-04-20T12:12:07.157Z,9.82
2023-04-20T12:14:34.543Z,10.30
2023-04-20T12:17:04.530Z,10.27
2023-04-20T12:19:31.797Z,10.30
2023-04-20T12:21:58.976Z,10.53
2023-04-20T12:24:26.168Z,10.32
2023-04-20T12:26:53.370Z,10.85
2023-04-20T12:29:20.850Z,10.95
2023-04-20T12:31:48.137Z,10.90
2023-04-20T12:34:16.802Z,11.10
2023-04-20T12:36:44.150Z,10.55
2023-04-20T12:39:11.805Z,10.32
2023-04-20T12:41:41.306Z,10.77
2023-04-20T12:44:10.783Z,10.10
2023-04-20T12:46:38.639Z,10.70
2023-04-20T12:49:06.142Z,10.88
2023-04-20T12:51:34.740Z,10.45
2023-04-20T12:54:02.318Z,11.68
2023-04-20T12:56:29.555Z,10.90
2023-04-20T12:58:56.728Z,10.30
2023-04-20T13:01:24.037Z,10.13
2023-04-20T13:03:52.448Z,10.63
2023-04-20T13:06:19.816Z,10.50
2023-04-20T13:08:48.623Z,10.23
2023-04-20T13:11:17.293Z,10.13
2023-04-20T13:13:44.723Z,10.13
2023-04-20T13:16:12.090Z,10.02
2023-04-20T13:18:39.384Z,9.27
2023-04-20T13:21:06.772Z,10.48
2023-04-20T13:23:34.022Z,9.87
2023-04-20T13:26:02.557Z,10.23
2023-04-20T13:28:29.770Z,10.55
2023-04-20T13:30:57.533Z,10.30
2023-04-20T13:33:25.742Z,10.40
2023-04-20T13:35:52.929Z,9.70
2023-04-20T13:38:20.434Z,10.07
2023-04-20T13:40:48.313Z,9.60
2023-04-20T13:43:17.666Z,9.75
2023-04-20T13:45:46.266Z,9.88
2023-04-20T13:48:13.528Z,9.23
2023-04-20T13:50:40.809Z,9.25
2023-04-20T13:53:08.042Z,9.40
2023-04-20T13:55:35.593Z,9.00
2023-04-20T13:58:02.807Z,9.15
2023-04-20T14:02:58.623Z,9.13
2023-04-20T14:05:26.065Z,9.05
2023-04-20T14:07:53.249Z,8.60
2023-04-20T14:10:20.554Z,9.27
2023-04-20T14:12:48.286Z,9.10
2023-04-20T14:15:15.506Z,8.77
2023-04-20T14:17:44.251Z,8.48
2023-04-20T14:20:12.373Z,8.52
2023-04-20T14:22:39.559Z,8.40
2023-04-20T14:25:07.460Z,8.03
2023-04-20T14:27:34.760Z,8.63
2023-04-20T14:30:02.038Z,8.25
2023-04-20T14:32:30.830Z,8.20
2023-04-20T14:34:59.640Z,7.88
2023-04-20T14:37:27.327Z,8.70
2023-04-20T14:39:54.711Z,7.78
2023-04-20T14:42:22.569Z,7.95
2023-04-20T14:44:50.318Z,7.72
2023-04-20T14:47:18.008Z,8.05
2023-04-20T14:49:45.227Z,7.07
2023-04-20T14:52:13.763Z,7.07
2023-04-20T14:54:40.946Z,7.00
2023-04-20T14:57:08.193Z,7.00
2023-04-20T14:59:37.063Z,6.80
2023-04-20T15:02:05.824Z,6.80
2023-04-20T15:04:33.594Z,6.88
2023-04-20T15:07:01.110Z,7.13
2023-04-20T15:09:30.049Z,6.88
2023-04-20T15:11:58.424Z,7.15
2023-04-20T15:14:25.692Z,6.80
2023-04-20T15:16:52.958Z,7.05
2023-04-20T15:19:20.610Z,6.70
2023-04-20T15:21:47.839Z,6.68
2023-04-20T15:24:15.216Z,6.68
2023-04-20T15:26:43.800Z,6.50
2023-04-20T15:29:11.003Z,6.43
2023-04-20T15:31:38.984Z,6.00
2023-04-20T15:34:06.232Z,6.70
2023-04-20T15:36:33.436Z,6.35
2023-04-20T15:39:00.757Z,6.87
2023-04-20T15:41:27.941Z,6.55
2023-04-20T15:43:56.488Z,6.97
2023-04-20T15:46:25.737Z,6.07
2023-04-20T15:48:53.052Z,6.32
2023-04-20T15:51:20.415Z,5.57
2023-04-20T15:53:50.427Z,6.13
2023-04-20T15:56:22.508Z,6.65
2023-04-20T15:58:50.839Z,6.05
2023-04-20T16:01:19.859Z,6.32
2023-04-20T16:03:47.777Z,6.40
2023-04-20T16:06:15.271Z,6.57
2023-04-20T16:08:42.516Z,6.00
2023-04-20T16:11:09.788Z,6.30
2023-04-20T16:13:37.081Z,5.57
2023-04-20T16:16:04.745Z,5.97
2023-04-20T16:18:33.347Z,6.30
2023-04-20T16:21:00.624Z,6.30
2023-04-20T16:23:28.305Z,6.20
2023-04-20T16:25:55.847Z,5.88
2023-04-20T16:28:23.082Z,6.17
2023-04-20T16:30:50.384Z,6.03
2023-04-20T16:33:18.072Z,6.45
2023-04-20T16:35:46.615Z,7.03
2023-04-20T16:38:13.822Z,6.80
2023-04-20T16:40:42.598Z,6.40
2023-04-20T16:43:10.174Z,6.80
2023-04-20T16:45:38.913Z,6.78
2023-04-20T16:48:06.462Z,6.05
2023-04-20T16:50:35.383Z,5.82
2023-04-20T16:53:04.133Z,6.50
2023-04-20T16:55:32.208Z,5.75
2023-04-20T16:58:02.322Z,6.00
2023-04-20T17:00:30.800Z,5.88
2023-04-20T17:03:01.098Z,6.13
2023-04-20T17:05:28.499Z,6.70
2023-04-20T17:07:55.693Z,6.80
2023-04-20T17:10:25.150Z,6.82
2023-04-20T17:12:52.323Z,6.18
2023-04-20T17:15:19.789Z,6.30
2023-04-20T17:17:47.012Z,6.13
2023-04-20T17:20:14.511Z,6.38
2023-04-20T17:22:41.924Z,5.97
2023-04-20T17:25:09.758Z,6.28
2023-04-20T17:27:38.266Z,6.72
2023-04-20T17:30:06.618Z,6.47
2023-04-20T17:32:33.807Z,7.25
2023-04-20T17:35:01.075Z,6.38
2023-04-20T17:37:28.272Z,6.30
2023-04-20T17:39:55.788Z,6.38
2023-04-20T17:42:23.219Z,6.50
2023-04-20T17:44:51.813Z,6.10
2023-04-20T17:47:19.019Z,6.80
2023-04-20T17:49:46.220Z,6.68
2023-04-20T17:52:17.817Z,6.80
2023-04-20T17:54:45.430Z,7.20
2023-04-20T17:57:13.985Z,6.95
2023-04-20T17:59:42.560Z,6.68
2023-04-20T18:02:11.957Z,6.70
2023-04-20T18:04:39.494Z,6.63
2023-04-20T18:07:06.777Z,6.53
2023-04-20T18:09:34.034Z,6.63
2023-04-20T18:12:01.306Z,7.40
2023-04-20T18:14:28.485Z,6.65
2023-04-20T18:16:56.650Z,6.72
2023-04-20T18:19:25.375Z,7.03
2023-04-20T18:21:52.593Z,6.55
2023-04-20T18:24:20.287Z,6.50
2023-04-20T18:26:47.721Z,6.57
2023-04-20T18:29:14.897Z,6.57
2023-04-20T18:31:42.462Z,6.60
2023-04-20T18:34:11.487Z,6.43
2023-04-20T18:36:40.653Z,7.13
2023-04-20T18:39:11.067Z,7.10
2023-04-20T18:41:38.763Z,7.10
2023-04-20T18:44:07.754Z,6.80
2023-04-20T18:46:35.092Z,6.85
2023-04-20T18:49:02.321Z,6.65
2023-04-20T18:51:29.612Z,6.57
2023-04-20T18:53:58.444Z,7.50
2023-04-20T18:56:25.933Z,6.47
2023-04-20T18:58:53.138Z,6.75
2023-04-20T19:01:20.365Z,6.38
2023-04-20T19:03:48.182Z,6.65
2023-04-20T19:06:15.907Z,6.45
2023-04-20T19:08:43.125Z,6.00
2023-04-20T19:11:11.675Z,5.68
2023-04-20T19:13:44.168Z,6.35
2023-04-20T19:16:12.096Z,6.40
2023-04-20T19:18:39.842Z,6.53
2023-04-20T19:21:07.473Z,5.83
2023-04-20T19:23:36.136Z,6.55
2023-04-20T19:26:04.101Z,6.03
2023-04-20T19:28:32.749Z,6.22
2023-04-20T19:31:00.343Z,5.78
2023-04-20T19:33:27.629Z,6.27
2023-04-20T19:35:54.842Z,6.60
2023-04-20T19:38:24.389Z,6.18
2023-04-20T19:40:52.051Z,6.30
2023-04-20T19:43:19.257Z,6.18
2023-04-20T19:45:47.913Z,5.93
2023-04-20T19:48:15.275Z,5.93
2023-04-20T19:50:42.447Z,6.38
2023-04-20T19:53:09.778Z,6.07
2023-04-20T19:55:37.115Z,6.35
2023-04-20T19:58:09.012Z,5.90
2023-04-20T20:00:36.791Z,6.40
2023-04-20T20:03:08.009Z,6.30
2023-04-20T20:05:35.449Z,6.05
2023-04-20T20:08:03.262Z,6.07
2023-04-20T20:10:30.487Z,6.20
2023-04-20T20:12:57.868Z,5.65
2023-04-20T20:15:25.259Z,5.95
2023-04-20T20:17:55.345Z,6.45
2023-04-20T20:20:24.468Z,5.93
2023-04-20T20:22:51.709Z,5.70
2023-04-20T20:25:19.820Z,5.85
2023-04-20T20:27:47.209Z,5.78
2023-04-20T20:30:15.314Z,6.00
2023-04-20T20:32:42.529Z,5.93
2023-04-20T20:35:11.569Z,5.87
2023-04-20T20:37:40.696Z,5.30
2023-04-20T20:40:14.723Z,5.93
2023-04-20T20:42:42.892Z,5.95
2023-04-20T20:45:12.270Z,6.07
2023-04-20T20:47:39.727Z,6.20
2023-04-20T20:50:07.999Z,6.38
2023-04-20T20:52:35.321Z,6.20
2023-04-20T20:55:04.429Z,6.30
2023-04-20T20:57:31.629Z,5.95
2023-04-20T20:59:58.884Z,5.77
2023-04-20T21:02:26.453Z,5.78
2023-04-20T21:04:54.339Z,6.00
2023-04-20T21:07:21.673Z,5.60
2023-04-20T21:09:48.949Z,6.32
2023-04-20T21:12:17.495Z,6.00
2023-04-20T21:14:44.692Z,6.18
2023-04-20T21:17:11.904Z,5.97
2023-04-20T21:19:39.107Z,6.07
2023-04-20T21:22:06.298Z,6.18
2023-04-20T21:24:33.497Z,5.50
2023-04-20T21:27:00.777Z,5.50
2023-04-20T21:29:29.385Z,5.78
2023-04-20T21:31:56.685Z,5.40
2023-04-20T21:34:24.010Z,6.13
2023-04-20T21:36:51.914Z,5.50
2023-04-20T21:39:19.300Z,6.00
2023-04-20T21:41:46.622Z,5.65
2023-04-20T21:44:13.815Z,5.32
2023-04-20T21:46:42.353Z,5.82
2023-04-20T21:49:09.632Z,5.33
2023-04-20T21:51:36.873Z,4.72
2023-04-20T21:54:04.260Z,5.05
2023-04-20T21:56:31.481Z,5.28
2023-04-20T21:58:58.658Z,5.22
2023-04-20T22:01:26.014Z,5.40
2023-04-20T22:03:54.782Z,4.90
2023-04-20T22:06:22.220Z,5.40
2023-04-20T22:08:49.436Z,5.13
2023-04-20T22:11:16.793Z,5.30
2023-04-20T22:13:44.574Z,5.23
2023-04-20T22:16:11.842Z,4.90
2023-04-20T22:18:39.064Z,4.95
2023-04-20T22:21:07.648Z,4.72
2023-04-20T22:23:34.842Z,5.20
2023-04-20T22:26:02.048Z,4.77
2023-04-20T22:28:29.250Z,5.13
2023-04-20T22:30:57.026Z,4.70
2023-04-20T22:33:24.737Z,4.47
2023-04-20T22:35:52.619Z,5.10
2023-04-20T22:38:21.120Z,4.60
2023-04-20T22:40:48.360Z,5.22
2023-04-20T22:43:15.772Z,4.70
2023-04-20T22:45:42.951Z,5.03
2023-04-20T22:48:10.320Z,5.43
2023-04-20T22:50:37.528Z,5.10
2023-04-20T22:53:04.721Z,5.25
2023-04-20T22:55:33.310Z,5.05
2023-04-20T22:58:00.517Z,5.35
2023-04-20T23:00:27.837Z,5.18
2023-04-20T23:02:55.110Z,5.37
2023-04-20T23:05:22.870Z,5.22
2023-04-20T23:07:50.161Z,4.75
2023-04-20T23:10:17.584Z,5.25
2023-04-20T23:12:46.873Z,5.15
2023-04-20T23:15:14.117Z,5.10
2023-04-20T23:17:41.424Z,5.20
2023-04-20T23:20:13.734Z,5.22
2023-04-20T23:22:41.300Z,5.00
2023-04-20T23:25:09.866Z,5.30
2023-04-20T23:27:37.360Z,5.10
2023-04-20T23:30:07.427Z,5.15
2023-04-20T23:32:34.655Z,4.93
2023-04-20T23:35:01.931Z,5.03
2023-04-20T23:37:29.107Z,5.35
2023-04-20T23:39:56.292Z,5.30
2023-04-20T23:42:23.465Z,5.55
2023-04-20T23:44:50.643Z,5.20
2023-04-20T23:47:19.131Z,5.35
2023-04-20T23:49:46.370Z,5.80
2023-04-20T23:52:13.595Z,5.40
2023-04-20T23:54:40.801Z,4.82
2023-04-20T23:57:08.008Z,5.70
2023-04-20T23:59:35.418Z,5.75
